| time (UTC) | temp C | wind direction | speed KPH | gust KPH | rain 1hr cm | rain 24hr cm | rain mn cm | humidity % | barometer mb |
| 20260506004542 | 12 | 241 | 9.7 | 14.5 | 0.00 | 0.58 | 0.58 | 73 | 1004.1 |
| 20260506003042 | 12 | 167 | 4.8 | 9.7 | 0.00 | 0.58 | 0.58 | 72 | 1004.3 |
| 20260506001545 | 11 | 174 | 1.6 | 6.4 | 0.00 | 0.58 | 0.58 | 75 | 1004.3 |
| 20260506000041 | 11 | 202 | 1.6 | 4.8 | 0.03 | 0.58 | 0.58 | 76 | 1004.3 |
| 20260505234539 | 11 | 170 | 1.6 | 11.3 | 0.10 | 0.58 | 0.58 | 78 | 1003.9 |
| 20260505233039 | 10 | 202 | 1.6 | 11.3 | 0.23 | 0.58 | 0.58 | 77 | 1004.1 |
| 20260505231538 | 11 | 205 | 9.7 | 17.7 | 0.33 | 0.58 | 0.58 | 77 | 1004.1 |
| 20260505230100 | 10 | 215 | 12.9 | 19.3 | 0.41 | 0.56 | 0.56 | 80 | 1004.0 |
| 20260505224537 | 10 | 214 | 6.4 | 11.3 | 0.41 | 0.46 | 0.46 | 79 | 1004.2 |
| 20260505223041 | 10 | 236 | 6.4 | 12.9 | 0.36 | 0.36 | 0.36 | 79 | 1004.1 |
| 20260505221543 | 10 | 182 | 1.6 | 16.1 | 0.25 | 0.25 | 0.25 | 77 | 1004.2 |
| 20260505220049 | 10 | 298 | 4.8 | 25.7 | 0.13 | 0.13 | 0.13 | 69 | 1004.0 |
| 20260505214536 | 12 | 35 | 6.4 | 24.1 | 0.05 | 0.05 | 0.05 | 60 | 1004.6 |
| 20260505213034 | 15 | 225 | 17.7 | 25.7 | 0.00 | 0.00 | 0.00 | 51 | 1004.1 |
| 20260505211531 | 15 | 360 | 12.9 | 30.6 | 0.00 | 0.00 | 0.00 | 46 | 1003.5 |
| 20260505210033 | 15 | 360 | 17.7 | 37.0 | 0.00 | 0.00 | 0.00 | 45 | 1003.5 |
| 20260505204530 | 16 | 360 | 14.5 | 38.6 | 0.00 | 0.00 | 0.00 | 45 | 1003.5 |
| 20260505203028 | 16 | 360 | 14.5 | 32.2 | 0.00 | 0.00 | 0.00 | 45 | 1003.4 |
| 20260505201524 | 15 | 360 | 20.9 | 33.8 | 0.00 | 0.00 | 0.00 | 47 | 1003.7 |
| 20260505200034 | 15 | 360 | 17.7 | 27.4 | 0.00 | 0.00 | 0.00 | 48 | 1003.9 |
| 20260505194522 | 15 | 360 | 14.5 | 24.1 | 0.00 | 0.00 | 0.00 | 48 | 1004.4 |
| 20260505193020 | 15 | 360 | 12.9 | 22.5 | 0.00 | 0.00 | 0.00 | 48 | 1004.4 |
| 20260505191525 | 14 | 360 | 11.3 | 30.6 | 0.00 | 0.00 | 0.00 | 49 | 1004.3 |
| 20260505190015 | 14 | 360 | 14.5 | 30.6 | 0.00 | 0.00 | 0.00 | 50 | 1004.2 |
| 20260505184512 | 13 | 360 | 12.9 | 24.1 | 0.00 | 0.00 | 0.00 | 51 | 1004.2 |
| 20260505183012 | 13 | 360 | 16.1 | 32.2 | 0.00 | 0.00 | 0.00 | 52 | 1004.2 |
| 20260505181509 | 13 | 360 | 16.1 | 30.6 | 0.00 | 0.00 | 0.00 | 52 | 1004.1 |
| 20260505180008 | 13 | 360 | 17.7 | 27.4 | 0.00 | 0.00 | 0.00 | 54 | 1004.0 |
| 20260505174506 | 13 | 360 | 16.1 | 29.0 | 0.00 | 0.00 | 0.00 | 56 | 1004.0 |
| 20260505173004 | 12 | 360 | 9.7 | 20.9 | 0.00 | 0.00 | 0.00 | 57 | 1004.0 |
| 20260505171501 | 12 | 360 | 12.9 | 32.2 | 0.00 | 0.00 | 0.00 | 57 | 1004.1 |
| 20260505164602 | 12 | 360 | 16.1 | 24.1 | 0.00 | 0.00 | 0.00 | 58 | 1003.9 |
| 20260505163103 | 12 | 360 | 17.7 | 29.0 | 0.00 | 0.00 | 0.00 | 57 | 1004.0 |
| 20260505161607 | 11 | 360 | 17.7 | 29.0 | 0.00 | 0.00 | 0.00 | 58 | 1004.0 |
| 20260505153050 | 11 | 360 | 19.3 | 29.0 | 0.00 | 0.00 | 0.00 | 59 | 1003.7 |
| 20260505151547 | 10 | 360 | 17.7 | 24.1 | 0.00 | 0.00 | 0.00 | 61 | 1003.8 |
| 20260505124532 | 7 | 360 | 3.2 | 12.9 | 0.00 | 0.00 | 0.00 | 70 | 1003.1 |
| 20260505123033 | 7 | 360 | 0.0 | 4.8 | 0.00 | 0.00 | 0.00 | 70 | 1002.9 |
| 20260505121534 | 7 | 360 | 3.2 | 8.0 | 0.00 | 0.00 | 0.00 | 70 | 1002.8 |
| 20260505120030 | 7 | 360 | 1.6 | 6.4 | 0.00 | 0.00 | 0.00 | 70 | 1002.8 |
| 20260505114528 | 8 | 360 | 1.6 | 8.0 | 0.00 | 0.00 | 0.00 | 69 | 1002.9 |
| 20260505113027 | 8 | 360 | 4.8 | 12.9 | 0.00 | 0.00 | 0.00 | 70 | 1002.9 |
| 20260505111526 | 8 | 360 | 3.2 | 6.4 | 0.00 | 0.00 | 0.00 | 71 | 1002.9 |
| 20260505101532 | 8 | 360 | 4.8 | 14.5 | 0.00 | 0.00 | 0.00 | 71 | 1002.4 |
| 20260505100021 | 7 | 360 | 11.3 | 17.7 | 0.00 | 0.00 | 0.00 | 72 | 1002.5 |
| 20260505094519 | 8 | 360 | 6.4 | 8.0 | 0.00 | 0.00 | 0.00 | 71 | 1002.6 |
| 20260505093017 | 8 | 360 | 1.6 | 8.0 | 0.00 | 0.00 | 0.00 | 69 | 1002.7 |
| 20260505091516 | 8 | 360 | 6.4 | 17.7 | 0.00 | 0.00 | 0.00 | 67 | 1002.8 |
| 20260505090033 | 8 | 360 | 6.4 | 20.9 | 0.00 | 0.00 | 0.00 | 67 | 1002.9 |
| 20260505084513 | 8 | 360 | 4.8 | 12.9 | 0.00 | 0.00 | 0.00 | 69 | 1003.0 |
| 20260505083012 | 8 | 360 | 3.2 | 9.7 | 0.00 | 0.00 | 0.00 | 70 | 1003.2 |
| 20260505081511 | 8 | 360 | 8.0 | 17.7 | 0.00 | 0.00 | 0.00 | 70 | 1003.1 |
| 20260505080025 | 8 | 360 | 6.4 | 14.5 | 0.00 | 0.00 | 0.00 | 72 | 1002.9 |
| 20260505074507 | 8 | 360 | 4.8 | 12.9 | 0.00 | 0.00 | 0.00 | 74 | 1003.0 |
| 20260505073004 | 8 | 188 | 0.0 | 3.2 | 0.00 | 0.00 | 0.00 | 72 | 1002.9 |
| 20260505071559 | 9 | 360 | 3.2 | 8.0 | 0.00 | 0.00 | 0.00 | 72 | 1002.7 |
| 20260505070058 | 9 | 360 | 3.2 | 8.0 | 0.00 | 0.00 | 0.00 | 72 | 1002.1 |
| 20260505064556 | 10 | 360 | 0.0 | 4.8 | 0.00 | 0.00 | 0.00 | 72 | 1002.2 |
| 20260505063056 | 10 | 360 | 1.6 | 6.4 | 0.00 | 0.00 | 0.00 | 72 | 1002.0 |
| 20260505061554 | 10 | 360 | 8.0 | 17.7 | 0.00 | 0.00 | 0.00 | 71 | 1001.8 |
| 20260505060054 | 10 | 360 | 12.9 | 17.7 | 0.00 | 0.00 | 0.00 | 69 | 1001.4 |
| 20260505054557 | 11 | 360 | 11.3 | 19.3 | 0.00 | 0.00 | 0.00 | 67 | 1002.0 |
| 20260505053052 | 11 | 360 | 12.9 | 22.5 | 0.00 | 0.00 | 0.00 | 64 | 1002.3 |
| 20260505051549 | 12 | 360 | 6.4 | 12.9 | 0.00 | 0.00 | 0.00 | 57 | 1003.1 |
| 20260505041549 | 13 | 360 | 1.6 | 6.4 | 0.00 | 0.00 | 0.00 | 52 | 1001.8 |
| 20260505040047 | 13 | 360 | 1.6 | 14.5 | 0.00 | 0.00 | 0.00 | 53 | 1001.3 |
| 20260505034551 | 14 | 360 | 8.0 | 22.5 | 0.00 | 0.00 | 0.00 | 47 | 1001.1 |
| 20260505033045 | 15 | 360 | 0.0 | 6.4 | 0.00 | 0.00 | 0.00 | 45 | 1001.6 |
| 20260505031554 | 15 | 360 | 3.2 | 16.1 | 0.00 | 0.00 | 0.00 | 44 | 1001.3 |
| 20260505030046 | 15 | 360 | 16.1 | 22.5 | 0.00 | 0.00 | 0.00 | 43 | 1000.9 |
| 20260505024550 | 15 | 360 | 11.3 | 22.5 | 0.00 | 0.00 | 0.00 | 41 | 1000.6 |
| 20260505023046 | 16 | 360 | 9.7 | 22.5 | 0.00 | 0.00 | 0.00 | 40 | 1000.4 |
| 20260505021542 | 16 | 360 | 6.4 | 17.7 | 0.00 | 0.00 | 0.00 | 37 | 999.9 |
| 20260505020042 | 16 | 360 | 9.7 | 20.9 | 0.00 | 0.00 | 0.00 | 36 | 999.5 |
| 20260505014600 | 17 | 360 | 6.4 | 25.7 | 0.00 | 0.00 | 0.00 | 35 | 999.2 |
| 20260505013042 | 17 | 257 | 14.5 | 30.6 | 0.00 | 0.00 | 0.00 | 35 | 999.2 |
| 20260505011548 | 17 | 256 | 12.9 | 29.0 | 0.00 | 0.00 | 0.00 | 36 | 999.3 |
| 20260505010039 | 17 | 238 | 14.5 | 33.8 | 0.00 | 0.00 | 0.00 | 35 | 999.2 |